Time;durP1;ratioP1;P1;durP2;ratioP2;P2;SDS_P1;SDS_P2;PMS_P1;PMS_P2;Temp;Humidity;BMP_temperature;BMP_pressure;BME280_temperature;BME280_humidity;BME280_pressure;Samples;Min_cycle;Max_cycle;Signal;HPM_P1;HPM_P2
2023/10/03 00:01:40;;;;;;;40.03;22.25;;;17.90;99.90;;;;;;4834374;29;20053;-82
2023/10/03 00:04:10;;;;;;;38.67;23.23;;;17.90;99.90;;;;;;4835864;29;20085;-82
2023/10/03 00:06:38;;;;;;;41.00;23.00;;;17.90;99.90;;;;;;4806215;29;20042;-82
2023/10/03 00:09:06;;;;;;;42.92;24.45;;;17.90;99.90;;;;;;4804119;29;20046;-82
2023/10/03 00:11:33;;;;;;;33.90;22.90;;;17.90;99.90;;;;;;4820401;29;20427;-82
2023/10/03 00:14:00;;;;;;;38.22;23.05;;;17.80;99.90;;;;;;4830802;29;20112;-82
2023/10/03 00:16:26;;;;;;;37.67;21.90;;;17.80;99.90;;;;;;4850156;29;20133;-82
2023/10/03 00:18:51;;;;;;;42.13;23.50;;;17.80;99.90;;;;;;4820337;29;20051;-82
2023/10/03 00:21:18;;;;;;;40.88;21.45;;;17.80;99.90;;;;;;4812036;29;20065;-82
2023/10/03 00:23:44;;;;;;;41.80;23.45;;;17.80;99.90;;;;;;4819452;29;20038;-82
2023/10/03 00:26:15;;;;;;;40.63;23.15;;;17.80;99.90;;;;;;4835392;29;20075;-82
2023/10/03 00:28:41;;;;;;;40.47;24.45;;;17.80;99.90;;;;;;4819958;29;20059;-82
2023/10/03 00:31:11;;;;;;;41.28;24.13;;;17.80;99.90;;;;;;4803947;29;20050;-82
2023/10/03 00:33:37;;;;;;;44.53;24.60;;;17.80;99.90;;;;;;4833181;29;20065;-82
2023/10/03 00:36:03;;;;;;;45.58;24.40;;;17.80;99.90;;;;;;4820993;29;20492;-82
2023/10/03 00:38:29;;;;;;;43.20;25.10;;;17.80;99.90;;;;;;4818255;29;20062;-82
2023/10/03 00:40:55;;;;;;;38.97;22.85;;;17.80;99.90;;;;;;4817948;29;20049;-81
2023/10/03 00:43:22;;;;;;;38.97;24.08;;;17.70;99.90;;;;;;4809261;29;20042;-82
2023/10/03 00:45:51;;;;;;;40.78;23.45;;;17.70;99.90;;;;;;4843827;29;20126;-82
2023/10/03 00:48:18;;;;;;;39.20;22.38;;;17.70;99.90;;;;;;4832295;29;20075;-82
2023/10/03 00:50:45;;;;;;;47.10;25.35;;;17.70;99.90;;;;;;4818459;29;20123;-82
2023/10/03 00:53:13;;;;;;;39.55;23.92;;;17.70;99.90;;;;;;4818753;29;20049;-82
2023/10/03 00:55:43;;;;;;;41.58;23.38;;;17.70;99.90;;;;;;4833419;29;20129;-82
2023/10/03 01:00:46;;;;;;;38.17;21.85;;;17.70;99.90;;;;;;4819539;29;20046;-82
2023/10/03 01:03:38;;;;;;;40.10;22.85;;;17.70;99.90;;;;;;4799095;29;20052;-82
2023/10/03 01:06:09;;;;;;;35.70;22.35;;;17.70;99.90;;;;;;4830163;29;20133;-82
2023/10/03 01:08:38;;;;;;;37.75;22.35;;;17.60;99.90;;;;;;4840421;29;20176;-82
2023/10/03 01:11:07;;;;;;;39.75;23.38;;;17.70;99.90;;;;;;4827586;29;20133;-81
2023/10/03 01:13:34;;;;;;;39.85;22.10;;;17.60;99.90;;;;;;4819656;29;20089;-82
2023/10/03 01:16:01;;;;;;;37.58;22.73;;;17.70;99.90;;;;;;4827458;29;20694;-82
2023/10/03 01:18:31;;;;;;;43.30;23.70;;;17.70;99.90;;;;;;4819679;29;20438;-82
2023/10/03 01:21:00;;;;;;;42.05;23.98;;;17.70;99.90;;;;;;4804003;29;20135;-82
2023/10/03 01:23:33;;;;;;;40.72;23.25;;;17.70;99.90;;;;;;4815338;29;20706;-82
2023/10/03 01:25:59;;;;;;;40.60;22.50;;;17.70;99.90;;;;;;4813709;29;20053;-83
2023/10/03 01:28:25;;;;;;;38.30;23.95;;;17.70;99.90;;;;;;4819252;29;20132;-82
2023/10/03 01:30:51;;;;;;;36.70;22.98;;;17.60;99.90;;;;;;4824579;29;20515;-82
2023/10/03 01:33:17;;;;;;;40.13;23.30;;;17.40;99.90;;;;;;4833994;29;20054;-83
2023/10/03 01:35:42;;;;;;;40.88;23.23;;;17.60;99.90;;;;;;4819524;29;20054;-83
2023/10/03 01:38:08;;;;;;;38.70;23.35;;;17.60;99.90;;;;;;4844770;29;20046;-83
2023/10/03 01:40:34;;;;;;;40.72;23.40;;;17.60;99.90;;;;;;4816681;29;20062;-82
2023/10/03 01:43:00;;;;;;;42.03;24.13;;;17.50;99.90;;;;;;4838688;29;20145;-83
2023/10/03 01:45:27;;;;;;;44.58;24.65;;;17.90;99.90;;;;;;4831775;29;20483;-83
2023/10/03 01:47:58;;;;;;;45.95;23.65;;;17.50;99.90;;;;;;4814697;29;20129;-83
2023/10/03 01:50:26;;;;;;;43.70;24.05;;;17.50;99.90;;;;;;4819812;29;20500;-82
2023/10/03 01:52:52;;;;;;;41.40;22.60;;;17.50;99.90;;;;;;4818261;29;20566;-83
2023/10/03 01:55:18;;;;;;;38.13;21.85;;;17.50;99.90;;;;;;4818667;29;20150;-82
2023/10/03 01:57:46;;;;;;;46.05;23.15;;;17.50;99.90;;;;;;4843977;29;20046;-83
2023/10/03 02:00:25;;;;;;;40.90;22.50;;;17.50;99.90;;;;;;4841080;29;20425;-83
2023/10/03 02:02:53;;;;;;;44.72;22.80;;;17.50;99.90;;;;;;4822604;29;20049;-83
2023/10/03 02:05:24;;;;;;;38.22;21.67;;;17.50;99.90;;;;;;4822763;29;20042;-82
2023/10/03 02:07:52;;;;;;;37.90;21.55;;;17.50;99.90;;;;;;4847100;29;20749;-83
2023/10/03 02:10:22;;;;;;;43.03;22.35;;;17.50;99.90;;;;;;4819448;29;20654;-82
2023/10/03 02:12:51;;;;;;;40.25;22.73;;;17.50;99.90;;;;;;4834604;29;20499;-81
2023/10/03 02:15:21;;;;;;;43.25;22.55;;;17.50;99.90;;;;;;4818389;29;20497;-82
2023/10/03 02:17:52;;;;;;;39.25;21.58;;;17.40;99.90;;;;;;4816308;29;20050;-81
2023/10/03 02:20:25;;;;;;;39.67;21.30;;;17.50;99.90;;;;;;4823766;29;20046;-82
2023/10/03 02:22:54;;;;;;;37.38;21.50;;;17.40;99.90;;;;;;4818504;29;20057;-82
2023/10/03 02:25:22;;;;;;;38.13;20.95;;;16.80;99.90;;;;;;4827357;29;20631;-82
2023/10/03 02:27:53;;;;;;;40.28;20.60;;;17.40;99.90;;;;;;4817512;29;20057;-82
2023/10/03 02:30:29;;;;;;;40.17;20.70;;;17.40;99.90;;;;;;4818230;29;20496;-82
2023/10/03 02:33:08;;;;;;;38.80;19.95;;;17.40;99.90;;;;;;4833220;29;20133;-82
2023/10/03 02:35:35;;;;;;;35.05;19.90;;;17.40;99.90;;;;;;4817934;29;20344;-82
2023/10/03 02:38:04;;;;;;;37.08;20.73;;;17.40;99.90;;;;;;4818022;29;20042;-82
2023/10/03 02:40:32;;;;;;;37.75;20.20;;;17.40;99.90;;;;;;4818627;29;20050;-81
2023/10/03 02:42:59;;;;;;;41.08;21.33;;;17.30;99.90;;;;;;4801149;29;20050;-82
2023/10/03 02:45:28;;;;;;;34.70;19.60;;;17.40;99.90;;;;;;4816463;29;20419;-82
2023/10/03 02:47:55;;;;;;;37.22;19.92;;;17.40;99.90;;;;;;4845439;29;20050;-82
2023/10/03 02:50:23;;;;;;;35.97;20.33;;;17.40;99.90;;;;;;4844647;29;20070;-82
2023/10/03 02:52:49;;;;;;;33.50;19.35;;;17.40;99.90;;;;;;4802201;29;20093;-82
2023/10/03 02:55:17;;;;;;;38.10;19.40;;;17.40;99.90;;;;;;4818273;29;20073;-82
2023/10/03 02:57:43;;;;;;;35.90;20.15;;;17.40;99.90;;;;;;4844897;29;20039;-83
2023/10/03 03:00:12;;;;;;;36.70;19.90;;;17.40;99.90;;;;;;4801491;29;20077;-83
2023/10/03 03:02:50;;;;;;;34.28;19.23;;;17.40;99.90;;;;;;4833044;29;20042;-82
2023/10/03 03:05:17;;;;;;;36.50;18.35;;;17.40;99.90;;;;;;4816402;29;20050;-82
2023/10/03 03:07:45;;;;;;;34.20;19.08;;;17.50;99.90;;;;;;4833452;29;20056;-82
2023/10/03 03:10:14;;;;;;;35.60;19.67;;;17.40;99.90;;;;;;4817385;29;20042;-82
2023/10/03 03:12:42;;;;;;;34.90;19.35;;;17.40;99.90;;;;;;4841200;29;20068;-82
2023/10/03 03:15:10;;;;;;;34.67;18.45;;;17.40;99.90;;;;;;4817504;29;20145;-83
2023/10/03 03:17:36;;;;;;;34.53;18.48;;;17.40;99.90;;;;;;4842619;29;20579;-82
2023/10/03 03:20:17;;;;;;;36.97;21.05;;;17.50;99.90;;;;;;4819459;29;20065;-82
2023/10/03 03:22:47;;;;;;;35.47;19.25;;;17.40;99.90;;;;;;4847584;29;20050;-82
2023/10/03 03:25:19;;;;;;;37.63;19.23;;;17.40;99.90;;;;;;4820224;29;20503;-83
2023/10/03 03:27:45;;;;;;;33.63;18.73;;;17.40;99.90;;;;;;4834559;29;20050;-82
2023/10/03 03:30:33;;;;;;;34.03;18.33;;;17.40;99.90;;;;;;4818535;29;20042;-82
2023/10/03 03:32:59;;;;;;;32.08;17.98;;;17.40;99.90;;;;;;4827798;29;20085;-82
2023/10/03 03:35:25;;;;;;;32.40;17.52;;;17.40;99.90;;;;;;4805582;29;20101;-82
2023/10/03 03:37:56;;;;;;;34.50;18.60;;;17.50;99.90;;;;;;4842904;29;20096;-82
2023/10/03 03:40:30;;;;;;;36.72;18.73;;;17.50;99.90;;;;;;4811848;29;20131;-82
2023/10/03 03:43:00;;;;;;;32.30;18.25;;;17.50;99.90;;;;;;4824437;29;20049;-82
2023/10/03 03:45:27;;;;;;;30.48;16.38;;;17.40;99.90;;;;;;4853093;29;20092;-83
2023/10/03 03:47:56;;;;;;;34.22;16.67;;;17.60;99.90;;;;;;4804678;29;20042;-83
2023/10/03 03:50:22;;;;;;;31.95;17.13;;;17.60;99.90;;;;;;4851151;29;20043;-82
2023/10/03 03:52:53;;;;;;;34.88;17.60;;;17.70;99.90;;;;;;4850693;29;20050;-83
2023/10/03 03:55:20;;;;;;;31.95;18.52;;;17.60;99.90;;;;;;4825457;29;20053;-82
2023/10/03 03:57:51;;;;;;;34.78;18.60;;;17.70;99.90;;;;;;4813246;29;20078;-83
2023/10/03 04:00:21;;;;;;;36.42;18.23;;;17.70;99.90;;;;;;4820301;29;20046;-83
2023/10/03 04:02:50;;;;;;;34.50;17.25;;;17.80;99.90;;;;;;4840015;29;20243;-82
2023/10/03 04:05:18;;;;;;;34.83;18.65;;;17.80;99.90;;;;;;4832008;29;20129;-83
2023/10/03 04:07:44;;;;;;;32.92;17.88;;;17.80;99.90;;;;;;4819948;29;20065;-83
2023/10/03 04:10:12;;;;;;;31.10;17.60;;;17.80;99.90;;;;;;4820715;29;20034;-82
2023/10/03 04:12:44;;;;;;;35.80;18.20;;;17.80;99.90;;;;;;4851221;29;20075;-82
2023/10/03 04:15:19;;;;;;;34.78;18.83;;;17.80;99.90;;;;;;4815866;29;20138;-81
2023/10/03 04:17:49;;;;;;;31.70;18.65;;;17.90;99.90;;;;;;4817803;29;20046;-82
2023/10/03 04:22:51;;;;;;;33.80;19.02;;;17.90;99.90;;;;;;4821511;29;20064;-82
2023/10/03 04:25:20;;;;;;;31.15;16.98;;;17.90;99.90;;;;;;4820664;29;20043;-82
2023/10/03 04:27:48;;;;;;;32.28;18.25;;;17.90;99.90;;;;;;4816504;29;20050;-82
2023/10/03 04:30:14;;;;;;;27.63;17.23;;;17.80;99.90;;;;;;4825140;29;20287;-82
2023/10/03 04:32:43;;;;;;;33.63;17.52;;;17.90;99.90;;;;;;4835089;29;20057;-82
2023/10/03 04:35:12;;;;;;;32.70;17.67;;;17.80;99.90;;;;;;4818161;29;20102;-82
2023/10/03 04:37:41;;;;;;;33.60;17.20;;;17.80;99.90;;;;;;4820638;29;20046;-81
2023/10/03 04:40:34;;;;;;;33.53;17.52;;;17.80;99.90;;;;;;4818929;29;20050;-81
2023/10/03 04:42:58;;;;;;;34.83;20.90;;;17.90;99.90;;;;;;4821467;29;20042;-81
2023/10/03 04:45:25;;;;;;;30.30;17.65;;;17.90;99.90;;;;;;4822044;29;20053;-81
2023/10/03 04:47:52;;;;;;;33.40;17.75;;;18.00;99.90;;;;;;4816076;29;20055;-82
2023/10/03 04:50:24;;;;;;;29.17;17.15;;;18.10;99.90;;;;;;4834245;29;20080;-82
2023/10/03 04:52:50;;;;;;;30.30;16.65;;;18.10;99.90;;;;;;4841674;29;20053;-81
2023/10/03 04:55:20;;;;;;;32.38;17.30;;;18.20;99.90;;;;;;4817751;29;20043;-82
2023/10/03 04:57:53;;;;;;;30.00;17.05;;;18.20;99.90;;;;;;4820073;29;20062;-80
2023/10/03 05:00:21;;;;;;;30.48;16.73;;;18.20;99.90;;;;;;4819974;29;20054;-81
2023/10/03 05:02:49;;;;;;;30.30;15.50;;;18.20;99.90;;;;;;4828303;29;20080;-80
2023/10/03 05:05:22;;;;;;;32.67;16.88;;;18.30;99.90;;;;;;4817161;29;20393;-81
2023/10/03 05:07:53;;;;;;;26.50;15.13;;;18.30;99.90;;;;;;4819121;29;20049;-81
2023/10/03 05:10:23;;;;;;;31.67;15.35;;;18.30;99.90;;;;;;4814608;29;20802;-81
2023/10/03 05:12:51;;;;;;;34.45;14.98;;;18.40;99.90;;;;;;4832719;29;20146;-81
2023/10/03 05:15:17;;;;;;;32.97;16.70;;;18.40;99.90;;;;;;4832603;29;20162;-80
2023/10/03 05:17:44;;;;;;;28.23;15.20;;;18.50;99.90;;;;;;4834814;29;20681;-80
2023/10/03 05:20:17;;;;;;;35.35;16.10;;;18.50;99.90;;;;;;4819974;29;20145;-81
2023/10/03 05:22:46;;;;;;;34.50;15.38;;;18.50;99.90;;;;;;4812173;29;20043;-81
2023/10/03 05:25:13;;;;;;;31.67;14.88;;;18.60;99.90;;;;;;4819109;29;20091;-81
2023/10/03 05:27:43;;;;;;;30.27;15.30;;;18.30;99.90;;;;;;4819706;29;20054;-82
2023/10/03 05:30:14;;;;;;;34.25;14.70;;;18.70;99.90;;;;;;4843176;29;20062;-82
2023/10/03 05:32:46;;;;;;;33.22;15.43;;;18.80;99.90;;;;;;4811001;29;20547;-80
2023/10/03 05:35:12;;;;;;;35.85;14.98;;;18.90;99.90;;;;;;4845173;29;20058;-80
2023/10/03 05:37:40;;;;;;;31.23;16.30;;;18.80;99.90;;;;;;4817669;29;20103;-80
2023/10/03 05:40:30;;;;;;;34.40;16.25;;;18.80;99.90;;;;;;4833292;29;20043;-81
2023/10/03 05:42:57;;;;;;;32.45;15.95;;;18.80;99.90;;;;;;4812678;29;20050;-83
2023/10/03 05:45:25;;;;;;;41.17;17.80;;;18.90;99.90;;;;;;4822147;29;20046;-84
2023/10/03 05:47:52;;;;;;;38.97;16.95;;;18.90;99.90;;;;;;4804148;29;20050;-82
2023/10/03 05:50:21;;;;;;;41.40;17.70;;;18.90;99.90;;;;;;4146237;29;10000724;-81
2023/10/03 05:52:50;;;;;;;43.33;17.65;;;18.90;99.90;;;;;;4814297;29;20284;-83
2023/10/03 05:55:22;;;;;;;36.90;17.70;;;18.90;99.90;;;;;;4828842;29;20573;-84
2023/10/03 05:57:48;;;;;;;39.00;17.63;;;18.90;99.90;;;;;;4816572;29;20039;-82
2023/10/03 06:00:18;;;;;;;32.90;16.85;;;18.90;99.90;;;;;;4816814;29;20499;-82
2023/10/03 06:02:47;;;;;;;37.22;16.88;;;18.90;99.90;;;;;;4808283;29;20500;-82
2023/10/03 06:05:14;;;;;;;32.90;16.70;;;18.90;99.90;;;;;;4832503;29;20050;-83
2023/10/03 06:07:41;;;;;;;31.15;14.98;;;18.90;99.90;;;;;;4822692;29;20049;-82
2023/10/03 06:10:10;;;;;;;33.55;15.82;;;19.00;99.90;;;;;;4842154;29;20626;-83
2023/10/03 06:12:36;;;;;;;31.98;16.20;;;19.00;99.90;;;;;;4801967;29;20150;-81
2023/10/03 06:15:04;;;;;;;37.58;15.57;;;19.00;99.90;;;;;;4837943;29;20141;-82
2023/10/03 06:17:31;;;;;;;33.15;15.68;;;19.00;99.90;;;;;;4802283;29;20103;-80
2023/10/03 06:19:57;;;;;;;42.25;16.23;;;18.90;99.90;;;;;;4817564;29;20061;-79
2023/10/03 06:22:23;;;;;;;30.65;15.40;;;18.90;99.90;;;;;;4826158;29;20479;-80
2023/10/03 06:24:50;;;;;;;36.20;16.10;;;18.90;99.90;;;;;;4819498;29;20042;-81
2023/10/03 06:27:17;;;;;;;31.05;14.57;;;19.20;99.90;;;;;;4842147;29;20116;-80
2023/10/03 06:29:43;;;;;;;29.65;13.48;;;18.80;99.90;;;;;;4817739;29;20058;-80
2023/10/03 06:32:09;;;;;;;33.50;13.52;;;18.80;99.90;;;;;;4814520;29;20049;-79
2023/10/03 06:34:35;;;;;;;31.80;12.50;;;18.70;99.90;;;;;;4801640;29;20145;-80
2023/10/03 06:37:04;;;;;;;24.17;11.80;;;18.70;99.90;;;;;;4833207;29;20046;-80
2023/10/03 06:39:31;;;;;;;28.23;11.35;;;18.70;99.90;;;;;;4818148;29;20058;-80
2023/10/03 06:41:58;;;;;;;26.23;12.85;;;18.70;99.90;;;;;;4832630;29;20047;-80
2023/10/03 06:44:26;;;;;;;25.95;11.07;;;18.70;99.90;;;;;;4814296;29;20058;-80
2023/10/03 06:46:52;;;;;;;28.50;11.55;;;18.60;99.90;;;;;;4817263;29;20053;-80
2023/10/03 06:49:19;;;;;;;23.83;9.85;;;18.50;99.90;;;;;;4812651;29;20042;-80
2023/10/03 06:52:14;;;;;;;24.90;10.40;;;18.50;99.90;;;;;;4800383;29;20484;-80
2023/10/03 06:54:42;;;;;;;22.10;9.68;;;18.50;99.90;;;;;;4814657;29;20222;-79
2023/10/03 06:57:08;;;;;;;25.52;10.18;;;18.50;99.90;;;;;;4776231;29;20038;-82
2023/10/03 06:59:33;;;;;;;20.42;9.65;;;18.40;99.90;;;;;;4815404;29;20059;-80
2023/10/03 07:01:59;;;;;;;25.45;9.23;;;18.40;99.90;;;;;;4816871;29;20103;-80
2023/10/03 07:04:25;;;;;;;25.13;9.10;;;18.30;99.90;;;;;;4794254;29;20047;-80
2023/10/03 07:06:50;;;;;;;21.27;8.40;;;18.30;99.90;;;;;;4824536;29;20058;-80
2023/10/03 07:09:17;;;;;;;22.00;9.80;;;18.30;99.90;;;;;;4810241;29;20145;-80
2023/10/03 07:11:47;;;;;;;19.77;8.07;;;18.30;99.90;;;;;;4791358;29;20069;-79
2023/10/03 07:14:13;;;;;;;18.75;7.53;;;18.20;99.90;;;;;;4791423;29;20051;-81
2023/10/03 07:16:39;;;;;;;20.25;7.38;;;18.10;99.90;;;;;;4807788;29;20059;-81
2023/10/03 07:19:05;;;;;;;23.05;7.57;;;18.10;99.90;;;;;;4835415;29;20278;-80
2023/10/03 07:21:34;;;;;;;20.77;7.65;;;18.10;99.90;;;;;;4817247;29;20425;-80
2023/10/03 07:24:00;;;;;;;20.63;7.20;;;18.60;99.90;;;;;;4803324;29;20165;-81
2023/10/03 07:26:27;;;;;;;22.23;7.32;;;18.00;99.90;;;;;;4826170;29;20532;-80
2023/10/03 07:28:57;;;;;;;19.83;8.52;;;17.90;99.90;;;;;;4822314;29;20517;-80
2023/10/03 07:31:23;;;;;;;25.95;9.20;;;17.90;99.90;;;;;;4815432;29;20039;-80
2023/10/03 07:33:48;;;;;;;24.52;9.10;;;17.90;99.90;;;;;;4810372;29;20058;-81
2023/10/03 07:36:17;;;;;;;27.05;9.23;;;18.00;99.90;;;;;;4849610;29;20452;-80
2023/10/03 07:38:42;;;;;;;26.52;8.63;;;17.80;99.90;;;;;;4807709;29;20062;-79
2023/10/03 07:41:17;;;;;;;24.10;7.85;;;17.70;99.90;;;;;;4807305;29;20042;-79
2023/10/03 07:43:47;;;;;;;21.50;7.35;;;17.60;99.90;;;;;;4809595;29;20115;-79
2023/10/03 07:46:21;;;;;;;23.02;6.43;;;17.60;99.90;;;;;;4809846;29;20058;-79
2023/10/03 07:48:48;;;;;;;20.15;6.32;;;17.50;99.90;;;;;;4792764;29;20117;-79
2023/10/03 07:51:18;;;;;;;17.95;5.57;;;17.40;99.90;;;;;;4807765;29;20416;-79
2023/10/03 07:53:43;;;;;;;17.90;5.57;;;17.30;99.90;;;;;;4824660;29;20046;-79
2023/10/03 07:56:17;;;;;;;19.42;6.05;;;17.30;99.90;;;;;;4813243;29;20125;-79
2023/10/03 07:58:44;;;;;;;14.90;5.40;;;17.30;99.90;;;;;;4839739;29;20051;-79
2023/10/03 08:01:13;;;;;;;13.40;4.28;;;17.20;99.90;;;;;;4809758;29;20046;-80
2023/10/03 08:03:39;;;;;;;22.20;5.38;;;17.30;99.90;;;;;;4828057;29;20050;-79
2023/10/03 08:06:05;;;;;;;15.52;4.75;;;17.20;99.90;;;;;;4842286;29;20073;-80
2023/10/03 08:08:30;;;;;;;14.05;3.85;;;17.20;99.90;;;;;;4819531;29;20050;-79
2023/10/03 08:10:58;;;;;;;9.88;3.42;;;17.70;99.90;;;;;;4820764;29;20047;-80
2023/10/03 08:13:24;;;;;;;11.13;3.17;;;17.10;99.90;;;;;;4820096;29;20046;-80
2023/10/03 08:15:50;;;;;;;8.88;2.58;;;17.00;99.90;;;;;;4819820;29;20509;-80
2023/10/03 08:18:17;;;;;;;14.57;3.13;;;16.90;99.90;;;;;;4821271;29;20395;-80
2023/10/03 08:20:53;;;;;;;13.98;2.67;;;16.90;99.90;;;;;;4818514;29;20559;-80
2023/10/03 08:23:19;;;;;;;15.07;2.70;;;16.80;99.90;;;;;;4821121;29;20091;-80
2023/10/03 08:25:45;;;;;;;11.02;2.70;;;16.70;99.90;;;;;;4821205;29;20533;-80
2023/10/03 08:28:11;;;;;;;15.15;2.47;;;16.70;99.90;;;;;;4820434;29;20133;-80
2023/10/03 08:30:38;;;;;;;7.57;2.00;;;16.70;99.90;;;;;;4819564;29;20065;-80
2023/10/03 08:33:05;;;;;;;11.45;2.28;;;16.70;99.90;;;;;;4834017;29;20043;-81
2023/10/03 08:35:37;;;;;;;9.23;1.55;;;16.70;99.90;;;;;;4818948;29;20066;-80
2023/10/03 08:38:09;;;;;;;8.15;1.58;;;16.60;99.90;;;;;;4820300;29;20050;-81
2023/10/03 08:40:44;;;;;;;10.38;1.55;;;16.70;99.90;;;;;;4819747;29;20062;-81
2023/10/03 08:43:11;;;;;;;9.80;1.73;;;16.60;99.90;;;;;;4839043;29;20050;-81
2023/10/03 08:45:52;;;;;;;12.23;1.23;;;16.60;99.90;;;;;;4852183;29;20457;-80
2023/10/03 08:48:26;;;;;;;8.68;1.08;;;16.60;99.90;;;;;;4844991;29;20372;-81
2023/10/03 08:50:57;;;;;;;7.35;1.67;;;16.50;99.90;;;;;;4843067;29;20046;-81
2023/10/03 08:53:27;;;;;;;3.30;0.82;;;16.60;99.90;;;;;;4812915;29;20057;-80
2023/10/03 08:56:03;;;;;;;9.25;1.20;;;16.50;99.90;;;;;;4831628;29;20097;-80
2023/10/03 08:58:29;;;;;;;3.60;0.90;;;16.50;99.90;;;;;;4809852;29;20294;-81
2023/10/03 09:00:59;;;;;;;7.07;0.82;;;16.50;99.90;;;;;;4843556;29;20042;-80
2023/10/03 09:03:29;;;;;;;4.40;0.80;;;16.40;99.90;;;;;;4843049;29;20285;-80
2023/10/03 09:05:58;;;;;;;6.88;1.30;;;16.30;99.90;;;;;;4816630;29;20397;-80
2023/10/03 09:08:27;;;;;;;6.85;0.57;;;16.20;99.90;;;;;;4810083;29;20083;-80
2023/10/03 09:10:53;;;;;;;3.35;0.70;;;16.10;99.90;;;;;;4823815;29;20102;-79
2023/10/03 09:13:27;;;;;;;5.75;1.10;;;16.00;99.90;;;;;;4824299;29;20043;-79
2023/10/03 09:16:50;;;;;;;3.80;0.43;;;16.00;99.90;;;;;;4814238;29;20117;-80
2023/10/03 09:20:05;;;;;;;4.35;0.65;;;15.90;99.90;;;;;;4840721;29;20137;-80
2023/10/03 09:23:09;;;;;;;6.13;0.90;;;15.80;99.90;;;;;;4835589;29;20376;-80
2023/10/03 09:26:19;;;;;;;1.83;0.20;;;15.70;99.90;;;;;;4817198;29;20059;-80
2023/10/03 09:29:33;;;;;;;1.60;0.20;;;15.60;99.90;;;;;;4827192;29;20050;-80
2023/10/03 09:32:38;;;;;;;3.75;0.45;;;15.60;99.90;;;;;;4832792;29;20081;-80
2023/10/03 09:36:01;;;;;;;4.22;0.30;;;15.50;99.90;;;;;;4803749;29;20050;-80
2023/10/03 09:39:21;;;;;;;3.15;0.22;;;15.50;99.90;;;;;;4815703;29;20090;-80
2023/10/03 09:42:18;;;;;;;4.30;0.20;;;15.40;99.90;;;;;;4831936;29;20462;-79
2023/10/03 09:45:08;;;;;;;2.03;0.32;;;15.40;99.90;;;;;;4819228;29;20062;-80
2023/10/03 09:48:36;;;;;;;1.42;0.63;;;15.40;99.90;;;;;;4820457;29;20073;-80
2023/10/03 09:51:54;;;;;;;1.85;0.30;;;15.30;99.90;;;;;;4812720;29;20115;-80
2023/10/03 09:54:46;;;;;;;4.70;0.60;;;15.30;99.90;;;;;;4815553;29;20449;-80
2023/10/03 09:57:51;;;;;;;3.78;0.35;;;15.30;99.90;;;;;;4817582;29;20065;-80
2023/10/03 10:00:59;;;;;;;4.40;0.25;;;15.40;99.90;;;;;;4809551;29;20054;-81
2023/10/03 10:04:13;;;;;;;4.88;0.30;;;15.40;99.90;;;;;;4816264;29;20556;-80
2023/10/03 10:07:43;;;;;;;2.92;0.47;;;15.30;99.90;;;;;;4811537;29;20096;-80
2023/10/03 10:11:07;;;;;;;6.97;0.68;;;15.30;99.90;;;;;;4798545;29;20491;-80
2023/10/03 10:13:36;;;;;;;2.65;0.50;;;15.30;99.90;;;;;;4800018;29;20534;-80
2023/10/03 10:16:23;;;;;;;3.13;0.65;;;15.40;99.90;;;;;;4823324;29;20051;-81
2023/10/03 10:18:54;;;;;;;4.82;0.70;;;15.30;99.90;;;;;;4810061;29;20522;-81
2023/10/03 10:21:31;;;;;;;2.95;0.75;;;15.40;99.90;;;;;;4841588;29;20093;-80
2023/10/03 10:24:24;;;;;;;3.55;0.77;;;15.40;99.90;;;;;;4834463;29;20061;-81
2023/10/03 10:26:52;;;;;;;4.93;1.08;;;15.40;99.90;;;;;;4818059;29;20062;-81
2023/10/03 10:29:24;;;;;;;8.27;1.27;;;15.40;99.90;;;;;;4819174;29;20050;-81
2023/10/03 10:32:00;;;;;;;3.45;0.93;;;15.50;99.90;;;;;;4818122;29;20070;-81
2023/10/03 10:34:36;;;;;;;7.68;0.90;;;15.50;99.90;;;;;;4848442;29;20053;-81
2023/10/03 10:37:09;;;;;;;3.30;0.82;;;15.60;99.90;;;;;;4846865;29;20418;-82
2023/10/03 10:39:54;;;;;;;4.60;0.80;;;15.50;99.90;;;;;;4833412;29;20096;-81
2023/10/03 10:42:24;;;;;;;4.38;0.70;;;15.50;99.90;;;;;;4813475;29;20050;-81
2023/10/03 10:45:14;;;;;;;2.25;0.50;;;15.50;99.90;;;;;;4818294;29;20055;-79
2023/10/03 10:47:50;;;;;;;3.30;0.60;;;15.50;99.90;;;;;;4817700;29;20054;-81
2023/10/03 10:50:25;;;;;;;9.13;0.80;;;15.60;99.90;;;;;;4819493;29;20065;-81
2023/10/03 10:53:02;;;;;;;8.48;1.35;;;15.50;99.90;;;;;;4845191;29;20070;-81
2023/10/03 10:55:28;;;;;;;5.00;0.65;;;15.50;99.90;;;;;;4811214;29;20416;-81
2023/10/03 10:58:07;;;;;;;7.65;0.80;;;15.50;99.90;;;;;;4817024;29;20061;-79
2023/10/03 11:00:33;;;;;;;1.67;0.60;;;15.50;99.90;;;;;;4842244;29;20429;-79
2023/10/03 11:03:00;;;;;;;3.92;0.70;;;15.40;99.90;;;;;;4814976;29;20042;-79
2023/10/03 11:05:47;;;;;;;5.35;0.90;;;15.40;99.90;;;;;;4818068;29;20122;-80
2023/10/03 11:08:13;;;;;;;5.97;1.15;;;15.30;99.90;;;;;;4840991;29;20508;-79
2023/10/03 11:10:52;;;;;;;4.82;1.00;;;15.30;99.90;;;;;;4817513;29;20123;-79
2023/10/03 11:13:19;;;;;;;5.88;1.05;;;15.20;99.90;;;;;;4840897;29;20043;-80
2023/10/03 11:15:52;;;;;;;6.65;1.33;;;15.20;99.90;;;;;;4845550;29;20148;-79
2023/10/03 11:18:27;;;;;;;4.30;1.03;;;16.20;99.90;;;;;;4817944;29;20050;-80
2023/10/03 11:20:55;;;;;;;6.20;1.70;;;15.10;99.90;;;;;;4846028;29;20299;-80
2023/10/03 11:23:23;;;;;;;5.72;1.40;;;15.10;99.90;;;;;;4834914;29;20050;-80
2023/10/03 11:25:59;;;;;;;5.30;1.55;;;16.20;99.90;;;;;;4845330;29;20039;-80
2023/10/03 11:28:29;;;;;;;6.88;1.50;;;15.10;99.90;;;;;;4817952;29;20050;-80
2023/10/03 11:31:01;;;;;;;5.30;1.45;;;15.10;99.90;;;;;;4816311;29;20055;-80
2023/10/03 11:33:58;;;;;;;3.47;1.70;;;16.10;99.90;;;;;;4825849;29;20065;-80
2023/10/03 11:36:26;;;;;;;5.15;2.03;;;15.10;99.90;;;;;;4801606;29;20050;-80
2023/10/03 11:39:06;;;;;;;9.18;2.22;;;15.90;99.90;;;;;;4849481;29;20046;-80
2023/10/03 11:41:33;;;;;;;5.25;1.50;;;14.90;99.90;;;;;;4820725;29;20035;-80
2023/10/03 11:44:00;;;;;;;5.50;1.45;;;16.10;99.90;;;;;;4829679;29;20388;-80
2023/10/03 11:46:25;;;;;;;6.13;2.10;;;15.40;99.90;;;;;;4805893;29;20094;-80
2023/10/03 11:48:58;;;;;;;8.20;2.30;;;15.40;99.90;;;;;;4819523;29;20499;-80
2023/10/03 11:51:25;;;;;;;6.30;2.95;;;15.20;99.90;;;;;;4819952;29;20530;-80
2023/10/03 11:53:53;;;;;;;8.38;2.47;;;14.70;99.90;;;;;;4819533;29;20129;-80
2023/10/03 11:56:18;;;;;;;11.32;2.47;;;14.70;99.90;;;;;;4829707;29;20039;-80
2023/10/03 11:58:44;;;;;;;8.65;2.58;;;14.60;99.90;;;;;;4821086;29;20461;-80
2023/10/03 12:01:10;;;;;;;7.80;2.58;;;14.70;99.90;;;;;;4841481;29;20050;-80
2023/10/03 12:03:37;;;;;;;7.13;2.10;;;14.60;99.90;;;;;;4841480;29;20046;-79
2023/10/03 12:06:04;;;;;;;5.90;2.08;;;14.60;99.90;;;;;;4814643;29;20547;-79
2023/10/03 12:08:32;;;;;;;6.47;1.85;;;14.50;99.90;;;;;;4833024;29;20073;-80
2023/10/03 12:10:58;;;;;;;6.50;1.92;;;14.40;99.90;;;;;;4843991;29;20042;-79
2023/10/03 12:13:23;;;;;;;4.72;1.67;;;14.50;99.90;;;;;;4828502;29;20042;-80
2023/10/03 12:15:50;;;;;;;6.10;2.03;;;14.70;99.90;;;;;;4841849;29;20072;-80
2023/10/03 12:18:15;;;;;;;5.30;2.25;;;14.60;99.90;;;;;;4825709;29;20086;-80
2023/10/03 12:20:43;;;;;;;11.50;2.40;;;14.30;99.90;;;;;;4826330;29;20043;-80
2023/10/03 12:23:10;;;;;;;6.53;1.80;;;14.80;99.90;;;;;;4847931;29;20073;-80
2023/10/03 12:25:36;;;;;;;4.97;2.03;;;14.20;99.90;;;;;;4833600;29;20042;-80
2023/10/03 12:28:01;;;;;;;9.43;2.15;;;14.20;99.90;;;;;;4818899;29;20046;-80
2023/10/03 12:30:27;;;;;;;7.15;1.75;;;14.30;99.90;;;;;;4818867;29;20403;-80
2023/10/03 12:32:53;;;;;;;5.97;1.83;;;14.30;99.90;;;;;;4818670;29;20046;-80
2023/10/03 12:35:19;;;;;;;11.80;2.75;;;14.30;99.90;;;;;;4816758;29;20050;-80
2023/10/03 12:37:47;;;;;;;7.50;2.50;;;14.30;99.90;;;;;;4849870;29;20122;-80
2023/10/03 12:40:18;;;;;;;9.45;2.15;;;14.30;99.90;;;;;;4804825;29;20046;-80
2023/10/03 12:42:48;;;;;;;7.63;2.05;;;14.40;99.90;;;;;;4829410;29;20058;-81
2023/10/03 12:45:17;;;;;;;9.60;2.60;;;14.70;99.90;;;;;;4832435;29;20053;-80
2023/10/03 12:47:47;;;;;;;7.18;2.70;;;14.50;99.90;;;;;;4815289;29;20047;-79
2023/10/03 12:50:33;;;;;;;6.85;2.15;;;14.50;99.90;;;;;;4839431;29;20525;-80
2023/10/03 12:53:01;;;;;;;7.13;1.90;;;14.50;99.90;;;;;;4820349;29;20538;-80
2023/10/03 12:55:29;;;;;;;7.15;1.88;;;14.60;99.90;;;;;;4819040;29;20089;-80
2023/10/03 12:57:58;;;;;;;8.75;1.92;;;14.60;99.90;;;;;;4818355;29;20543;-80
2023/10/03 13:00:25;;;;;;;5.55;1.98;;;14.60;99.90;;;;;;4840061;29;20057;-81
2023/10/03 13:02:52;;;;;;;8.63;2.20;;;15.90;99.90;;;;;;4816271;29;20062;-80
2023/10/03 13:05:20;;;;;;;6.47;2.22;;;14.70;99.90;;;;;;4821352;29;20471;-80